Time;durP1;ratioP1;P1;durP2;ratioP2;P2;SDS_P1;SDS_P2;PMS_P1;PMS_P2;Temp;Humidity;BMP_temperature;BMP_pressure;BME280_temperature;BME280_humidity;BME280_pressure;Samples;Min_cycle;Max_cycle;Signal;HPM_P1;HPM_P2
2021/11/25 00:01:49;;;;;;;;;;;23.80;36.20;;;;;;5095605;28;19912;-79
2021/11/25 00:04:18;;;;;;;;;;;23.80;36.30;;;;;;5078584;28;19908;-79
2021/11/25 00:06:43;;;;;;;;;;;23.90;36.30;;;;;;5094937;28;20230;-81
2021/11/25 00:09:11;;;;;;;;;;;23.90;36.40;;;;;;5078450;28;19919;-79
2021/11/25 00:11:37;;;;;;;;;;;23.90;36.50;;;;;;5094875;28;19923;-82
2021/11/25 00:14:02;;;;;;;;;;;23.90;36.50;;;;;;5077277;28;19908;-81
2021/11/25 00:16:28;;;;;;;;;;;23.90;36.60;;;;;;5077999;28;19908;-78
2021/11/25 00:18:56;;;;;;;;;;;23.90;36.60;;;;;;5094680;28;19916;-79
2021/11/25 00:21:27;;;;;;;;;;;23.90;36.70;;;;;;5078634;28;20007;-81
2021/11/25 00:23:53;;;;;;;;;;;23.90;36.70;;;;;;5080611;28;19908;-80
2021/11/25 00:26:18;;;;;;;;;;;23.90;36.80;;;;;;5097571;28;19920;-78
2021/11/25 00:28:44;;;;;;;;;;;23.90;36.90;;;;;;5097377;28;20435;-79
2021/11/25 00:31:14;;;;;;;;;;;23.90;36.90;;;;;;5094980;28;19912;-81
2021/11/25 00:33:42;;;;;;;;;;;23.90;36.90;;;;;;5094995;28;19908;-81
2021/11/25 00:36:08;;;;;;;;;;;23.90;37.00;;;;;;5096515;28;19909;-78
2021/11/25 00:38:33;;;;;;;;;;;23.90;37.10;;;;;;5095951;28;19931;-78
2021/11/25 00:40:59;;;;;;;;;;;23.90;37.10;;;;;;5079051;28;19912;-79
2021/11/25 00:43:27;;;;;;;;;;;23.90;37.20;;;;;;5095190;28;19915;-82
2021/11/25 00:45:52;;;;;;;;;;;23.80;37.20;;;;;;5095003;28;19965;-80
2021/11/25 00:48:20;;;;;;;;;;;23.90;37.30;;;;;;5094908;28;19908;-81
2021/11/25 00:50:47;;;;;;;;;;;23.90;37.40;;;;;;5094878;28;19927;-78
2021/11/25 00:53:15;;;;;;;;;;;23.90;37.40;;;;;;5095444;28;19919;-80
2021/11/25 00:55:45;;;;;;;;;;;23.90;37.40;;;;;;5095562;28;19908;-80
2021/11/25 00:58:11;;;;;;;;;;;23.90;37.50;;;;;;5095501;28;19912;-78
2021/11/25 01:00:39;;;;;;;;;;;23.90;37.50;;;;;;5094812;28;20389;-77
2021/11/25 01:03:04;;;;;;;;;;;23.80;37.50;;;;;;5094807;28;19908;-81
2021/11/25 01:05:30;;;;;;;;;;;23.80;37.50;;;;;;5094821;28;20352;-79
2021/11/25 01:07:58;;;;;;;;;;;23.80;37.60;;;;;;5077856;28;19924;-78
2021/11/25 01:10:23;;;;;;;;;;;23.80;37.70;;;;;;5077729;28;20053;-78
2021/11/25 01:12:49;;;;;;;;;;;23.80;37.70;;;;;;5077551;28;19977;-80
2021/11/25 01:15:15;;;;;;;;;;;23.80;37.70;;;;;;5094356;28;19919;-76
2021/11/25 01:17:40;;;;;;;;;;;23.80;37.80;;;;;;5094204;28;19916;-80
2021/11/25 01:20:08;;;;;;;;;;;23.80;37.80;;;;;;5094229;28;19989;-79
2021/11/25 01:22:33;;;;;;;;;;;23.80;37.80;;;;;;5094872;28;19970;-77
2021/11/25 01:24:58;;;;;;;;;;;23.80;37.90;;;;;;5094914;28;19912;-77
2021/11/25 01:27:24;;;;;;;;;;;23.80;38.00;;;;;;5097872;28;20291;-77
2021/11/25 01:29:50;;;;;;;;;;;23.80;38.00;;;;;;5097940;28;19923;-76
2021/11/25 01:32:15;;;;;;;;;;;23.80;38.00;;;;;;5098744;28;19912;-77
2021/11/25 01:34:46;;;;;;;;;;;23.80;38.00;;;;;;5098905;28;19908;-79
2021/11/25 01:37:14;;;;;;;;;;;23.80;38.00;;;;;;5097994;28;20384;-80
2021/11/25 01:39:41;;;;;;;;;;;23.80;38.00;;;;;;5098868;28;19908;-80
2021/11/25 01:42:07;;;;;;;;;;;23.80;38.00;;;;;;5098268;28;19962;-81
2021/11/25 01:44:35;;;;;;;;;;;23.80;38.00;;;;;;5098125;28;20241;-79
2021/11/25 01:47:01;;;;;;;;;;;23.80;38.00;;;;;;5097955;28;20341;-81
2021/11/25 01:49:29;;;;;;;;;;;23.80;38.00;;;;;;5081212;28;19961;-76
2021/11/25 01:51:55;;;;;;;;;;;23.80;38.00;;;;;;5080932;28;19920;-77
2021/11/25 01:54:20;;;;;;;;;;;23.80;38.00;;;;;;5098101;28;19908;-80
2021/11/25 01:56:46;;;;;;;;;;;23.80;38.00;;;;;;5097791;28;20002;-78
2021/11/25 01:59:12;;;;;;;;;;;23.80;38.10;;;;;;5080971;28;20008;-81
2021/11/25 02:01:37;;;;;;;;;;;23.80;38.20;;;;;;5097975;28;20321;-78
2021/11/25 02:04:03;;;;;;;;;;;23.80;38.20;;;;;;5080480;28;19974;-81
2021/11/25 02:06:31;;;;;;;;;;;23.70;38.20;;;;;;5097753;28;19934;-79
2021/11/25 02:08:57;;;;;;;;;;;23.70;38.20;;;;;;5098114;28;19962;-81
2021/11/25 02:11:22;;;;;;;;;;;23.70;38.30;;;;;;5097450;28;19959;-77
2021/11/25 02:13:50;;;;;;;;;;;23.70;38.30;;;;;;5097847;28;19929;-80
2021/11/25 02:16:16;;;;;;;;;;;23.70;38.30;;;;;;5097672;28;20374;-78
2021/11/25 02:18:46;;;;;;;;;;;23.70;38.40;;;;;;5098491;28;19908;-77
2021/11/25 02:21:11;;;;;;;;;;;23.70;38.30;;;;;;5096826;28;20382;-80
2021/11/25 02:23:37;;;;;;;;;;;23.70;38.40;;;;;;5096770;28;19915;-79
2021/11/25 02:26:05;;;;;;;;;;;23.70;38.40;;;;;;5079744;28;19912;-79
2021/11/25 02:28:35;;;;;;;;;;;23.70;38.40;;;;;;5079372;28;19923;-78
2021/11/25 02:31:04;;;;;;;;;;;23.70;38.40;;;;;;5096228;28;19920;-81
2021/11/25 02:33:29;;;;;;;;;;;23.70;38.40;;;;;;5079274;28;19998;-79
2021/11/25 02:35:57;;;;;;;;;;;23.70;38.40;;;;;;5096534;28;19954;-79
2021/11/25 02:38:23;;;;;;;;;;;23.70;38.50;;;;;;5096405;28;19920;-81
2021/11/25 02:40:51;;;;;;;;;;;23.70;38.50;;;;;;5096466;28;20003;-80
2021/11/25 02:43:18;;;;;;;;;;;23.70;38.50;;;;;;5096199;28;20257;-79
2021/11/25 02:45:46;;;;;;;;;;;23.70;38.50;;;;;;5095859;28;19943;-78
2021/11/25 02:48:14;;;;;;;;;;;23.70;38.60;;;;;;5096939;28;19908;-78
2021/11/25 02:50:42;;;;;;;;;;;23.70;38.60;;;;;;5079281;28;20359;-77
2021/11/25 02:53:12;;;;;;;;;;;23.70;38.50;;;;;;5079222;28;19938;-77
2021/11/25 02:55:38;;;;;;;;;;;23.70;38.60;;;;;;5096456;28;19908;-77
2021/11/25 02:58:04;;;;;;;;;;;23.70;38.60;;;;;;5095554;28;20249;-77
2021/11/25 03:00:33;;;;;;;;;;;23.70;38.60;;;;;;5095480;28;19927;-77
2021/11/25 03:03:00;;;;;;;;;;;23.70;38.60;;;;;;5095480;28;19998;-82
2021/11/25 03:05:29;;;;;;;;;;;23.70;38.70;;;;;;5078350;28;19912;-79
2021/11/25 03:07:57;;;;;;;;;;;23.70;38.70;;;;;;5095875;28;20458;-79
2021/11/25 03:10:25;;;;;;;;;;;23.70;38.70;;;;;;5096001;28;19976;-78
2021/11/25 03:12:50;;;;;;;;;;;23.60;38.70;;;;;;5095525;28;19908;-79
2021/11/25 03:15:18;;;;;;;;;;;23.60;38.70;;;;;;5096427;28;20333;-77
2021/11/25 03:17:44;;;;;;;;;;;23.60;38.70;;;;;;5096377;28;19951;-79
2021/11/25 03:20:10;;;;;;;;;;;23.60;38.70;;;;;;5095342;28;19961;-80
2021/11/25 03:22:36;;;;;;;;;;;23.70;38.70;;;;;;5078122;28;19912;-80
2021/11/25 03:25:04;;;;;;;;;;;23.70;38.80;;;;;;5095195;28;19947;-80
2021/11/25 03:27:32;;;;;;;;;;;23.70;38.80;;;;;;5095086;28;19937;-80
2021/11/25 03:29:57;;;;;;;;;;;23.70;38.80;;;;;;5095033;28;19912;-81
2021/11/25 03:32:23;;;;;;;;;;;23.60;38.80;;;;;;5094984;28;20325;-78
2021/11/25 03:34:48;;;;;;;;;;;23.70;38.80;;;;;;5078132;28;20011;-79
2021/11/25 03:37:14;;;;;;;;;;;23.60;38.80;;;;;;5078091;28;19920;-77
2021/11/25 03:39:39;;;;;;;;;;;23.60;38.80;;;;;;5095090;28;19931;-75
2021/11/25 03:42:06;;;;;;;;;;;23.60;38.80;;;;;;5095479;28;20241;-78
2021/11/25 03:44:33;;;;;;;;;;;23.60;38.80;;;;;;5095719;28;19920;-76
2021/11/25 03:47:01;;;;;;;;;;;23.60;38.80;;;;;;5095779;28;19965;-77
2021/11/25 03:49:27;;;;;;;;;;;23.60;38.80;;;;;;5094771;28;20367;-81
2021/11/25 03:51:52;;;;;;;;;;;23.60;38.80;;;;;;5095453;28;19908;-80
2021/11/25 03:54:18;;;;;;;;;;;23.60;38.80;;;;;;5094797;28;19919;-78
2021/11/25 03:56:43;;;;;;;;;;;23.60;38.90;;;;;;5077643;28;20343;-76
2021/11/25 03:59:09;;;;;;;;;;;23.60;38.80;;;;;;5094506;28;20424;-81
2021/11/25 04:01:35;;;;;;;;;;;23.60;38.90;;;;;;5094545;28;19908;-78
2021/11/25 04:04:00;;;;;;;;;;;23.60;38.90;;;;;;5094674;28;19954;-80
2021/11/25 04:06:25;;;;;;;;;;;23.60;38.90;;;;;;5095034;28;19969;-78
2021/11/25 04:08:51;;;;;;;;;;;23.60;38.90;;;;;;5095140;28;19916;-78
2021/11/25 04:11:17;;;;;;;;;;;23.60;38.90;;;;;;5077797;28;19977;-80
2021/11/25 04:13:42;;;;;;;;;;;23.60;38.90;;;;;;5094408;28;19915;-80
2021/11/25 04:16:08;;;;;;;;;;;23.60;39.00;;;;;;5078132;28;19969;-77
2021/11/25 04:18:33;;;;;;;;;;;23.60;39.00;;;;;;5095398;28;19908;-78
2021/11/25 04:20:59;;;;;;;;;;;23.60;38.90;;;;;;5094506;28;19991;-78
2021/11/25 04:23:29;;;;;;;;;;;23.60;38.90;;;;;;5094327;28;20015;-81
2021/11/25 04:25:55;;;;;;;;;;;23.60;39.00;;;;;;5077739;28;20321;-82
2021/11/25 04:28:23;;;;;;;;;;;23.60;38.90;;;;;;5094127;28;19916;-82
2021/11/25 04:35:28;;;;;;;;;;;23.60;39.00;;;;;;5094122;28;20372;-82
2021/11/25 04:36:24;;;;;;;;;;;23.60;39.30;;;;;;5094144;28;19966;-79
2021/11/25 04:38:49;;;;;;;;;;;23.50;39.10;;;;;;5077562;28;19912;-84
2021/11/25 04:41:17;;;;;;;;;;;23.50;39.10;;;;;;5077888;28;19908;-78
2021/11/25 04:43:43;;;;;;;;;;;23.50;39.00;;;;;;5094282;28;20053;-77
2021/11/25 04:46:08;;;;;;;;;;;23.60;39.10;;;;;;5094287;28;19994;-80
2021/11/25 04:48:34;;;;;;;;;;;23.60;39.10;;;;;;5077192;28;19915;-75
2021/11/25 04:51:00;;;;;;;;;;;23.50;39.10;;;;;;5077318;28;19923;-80
2021/11/25 04:53:28;;;;;;;;;;;23.50;39.10;;;;;;5093856;28;19912;-78
2021/11/25 04:55:58;;;;;;;;;;;23.60;39.20;;;;;;5094130;28;20372;-79
2021/11/25 04:58:24;;;;;;;;;;;23.50;39.10;;;;;;5094078;28;19919;-81
2021/11/25 05:00:49;;;;;;;;;;;23.60;39.10;;;;;;5077461;28;19908;-78
2021/11/25 05:03:17;;;;;;;;;;;23.50;39.10;;;;;;5081101;28;19909;-77
2021/11/25 05:05:43;;;;;;;;;;;23.50;39.10;;;;;;5098284;28;19918;-81
2021/11/25 05:08:09;;;;;;;;;;;23.50;39.10;;;;;;5098624;28;20003;-77
2021/11/25 05:10:34;;;;;;;;;;;23.50;39.10;;;;;;5098242;28;19923;-78
2021/11/25 05:13:02;;;;;;;;;;;23.50;39.20;;;;;;5081947;28;20289;-81
2021/11/25 05:15:28;;;;;;;;;;;23.50;39.10;;;;;;5081212;28;19908;-78
2021/11/25 05:17:53;;;;;;;;;;;23.50;39.10;;;;;;5080860;28;19919;-78
2021/11/25 05:20:19;;;;;;;;;;;23.50;39.20;;;;;;5080888;28;20010;-81
2021/11/25 05:22:45;;;;;;;;;;;23.50;39.20;;;;;;5097610;28;20253;-80
2021/11/25 05:25:11;;;;;;;;;;;23.50;39.20;;;;;;5097371;28;20007;-78
2021/11/25 05:27:37;;;;;;;;;;;23.50;39.20;;;;;;5098186;28;20002;-79
2021/11/25 05:30:03;;;;;;;;;;;23.50;39.20;;;;;;5080237;28;19912;-78
2021/11/25 05:32:31;;;;;;;;;;;23.50;39.20;;;;;;5080467;28;19914;-80
2021/11/25 05:34:57;;;;;;;;;;;23.50;39.20;;;;;;5080737;28;19918;-79
2021/11/25 05:37:24;;;;;;;;;;;23.50;39.30;;;;;;5097010;28;19920;-77
2021/11/25 05:39:50;;;;;;;;;;;23.50;39.30;;;;;;5097155;28;19965;-76
2021/11/25 05:42:19;;;;;;;;;;;23.50;39.30;;;;;;5080149;28;19912;-80
2021/11/25 05:44:45;;;;;;;;;;;23.50;39.30;;;;;;5097859;28;19908;-79
2021/11/25 05:47:13;;;;;;;;;;;23.50;39.30;;;;;;5081394;28;19966;-79
2021/11/25 05:49:38;;;;;;;;;;;23.50;39.30;;;;;;5081200;28;20376;-81
2021/11/25 05:52:04;;;;;;;;;;;23.50;39.30;;;;;;5096696;28;20011;-78
2021/11/25 05:54:34;;;;;;;;;;;23.50;39.30;;;;;;5080002;28;19908;-77
2021/11/25 05:57:00;;;;;;;;;;;23.50;39.30;;;;;;5097648;28;19919;-79
2021/11/25 05:59:28;;;;;;;;;;;23.50;39.30;;;;;;5079772;28;19912;-78
2021/11/25 06:01:56;;;;;;;;;;;23.50;39.30;;;;;;5096779;28;20016;-79
2021/11/25 06:04:21;;;;;;;;;;;23.50;39.30;;;;;;5097333;28;19908;-82
2021/11/25 06:06:47;;;;;;;;;;;23.50;39.30;;;;;;5096765;28;20348;-77
2021/11/25 06:09:12;;;;;;;;;;;23.50;39.30;;;;;;5096657;28;19908;-80
2021/11/25 06:11:40;;;;;;;;;;;23.50;39.30;;;;;;5097328;28;19912;-78
2021/11/25 06:14:06;;;;;;;;;;;23.50;39.30;;;;;;5095661;28;19912;-80
2021/11/25 06:16:31;;;;;;;;;;;23.50;39.40;;;;;;5079643;28;20337;-79
2021/11/25 06:18:59;;;;;;;;;;;23.50;39.40;;;;;;5096409;28;20393;-79
2021/11/25 06:21:26;;;;;;;;;;;23.50;39.40;;;;;;5096555;28;19908;-78
2021/11/25 06:23:51;;;;;;;;;;;23.40;39.40;;;;;;5079143;28;20444;-77
2021/11/25 06:26:17;;;;;;;;;;;23.50;39.40;;;;;;5096067;28;19944;-79
2021/11/25 06:28:42;;;;;;;;;;;23.40;39.40;;;;;;5096401;28;19938;-80
2021/11/25 06:31:08;;;;;;;;;;;23.40;39.40;;;;;;5079074;28;20352;-81
2021/11/25 06:33:36;;;;;;;;;;;23.50;39.40;;;;;;5096432;28;20340;-77
2021/11/25 06:36:01;;;;;;;;;;;23.50;39.50;;;;;;5096310;28;19912;-78
2021/11/25 06:38:27;;;;;;;;;;;23.50;39.50;;;;;;5097112;28;19927;-78
2021/11/25 06:40:52;;;;;;;;;;;23.50;39.40;;;;;;5079481;28;19908;-75
2021/11/25 06:43:18;;;;;;;;;;;23.40;39.40;;;;;;5096691;28;19909;-78
2021/11/25 06:45:48;;;;;;;;;;;23.40;39.50;;;;;;5096016;28;19908;-80
2021/11/25 06:48:13;;;;;;;;;;;23.50;39.50;;;;;;5096839;28;19916;-80
2021/11/25 06:50:41;;;;;;;;;;;23.40;39.50;;;;;;5096149;28;19912;-83
2021/11/25 06:53:07;;;;;;;;;;;23.40;39.40;;;;;;5095947;28;19931;-81
2021/11/25 06:55:32;;;;;;;;;;;23.50;39.50;;;;;;5096025;28;19908;-80
2021/11/25 06:58:00;;;;;;;;;;;23.50;39.50;;;;;;5078700;28;19908;-80
2021/11/25 07:00:28;;;;;;;;;;;23.40;39.50;;;;;;5095653;28;19963;-78
2021/11/25 07:02:56;;;;;;;;;;;23.40;39.50;;;;;;5078899;28;19953;-78
2021/11/25 07:05:25;;;;;;;;;;;23.40;39.50;;;;;;5078893;28;19955;-77
2021/11/25 07:07:50;;;;;;;;;;;23.40;39.50;;;;;;5078625;28;19912;-77
2021/11/25 07:10:16;;;;;;;;;;;23.40;39.50;;;;;;5095235;28;19992;-76
2021/11/25 07:12:46;;;;;;;;;;;23.40;39.50;;;;;;5095405;28;19908;-78
2021/11/25 07:15:12;;;;;;;;;;;23.40;39.50;;;;;;5095635;28;20136;-77
2021/11/25 07:17:40;;;;;;;;;;;23.40;39.50;;;;;;5095291;28;20268;-79
2021/11/25 07:20:09;;;;;;;;;;;23.40;39.50;;;;;;5095269;28;19908;-79
2021/11/25 07:22:35;;;;;;;;;;;23.40;39.50;;;;;;5078333;28;20360;-78
2021/11/25 07:25:03;;;;;;;;;;;23.40;39.50;;;;;;5078245;28;19944;-77
2021/11/25 07:27:31;;;;;;;;;;;23.50;39.40;;;;;;5078863;28;19908;-77
2021/11/25 07:29:57;;;;;;;;;;;23.50;39.30;;;;;;5095120;28;19923;-83
2021/11/25 07:32:25;;;;;;;;;;;23.60;39.20;;;;;;5078943;28;19908;-83
2021/11/25 07:34:50;;;;;;;;;;;23.60;39.10;;;;;;5078302;28;19908;-81
2021/11/25 07:37:17;;;;;;;;;;;23.60;39.10;;;;;;5078299;28;20317;-85
2021/11/25 07:39:45;;;;;;;;;;;23.70;38.90;;;;;;5078513;28;20303;-79
2021/11/25 07:42:13;;;;;;;;;;;23.70;38.80;;;;;;5078559;28;19914;-83
2021/11/25 07:44:39;;;;;;;;;;;23.70;38.70;;;;;;5078484;28;20260;-81
2021/11/25 07:47:07;;;;;;;;;;;23.70;38.60;;;;;;5078121;28;20003;-83
2021/11/25 07:49:32;;;;;;;;;;;23.70;38.60;;;;;;5078424;28;19912;-82
2021/11/25 07:51:59;;;;;;;;;;;23.70;38.50;;;;;;5078778;28;19919;-82
2021/11/25 07:54:26;;;;;;;;;;;23.70;38.50;;;;;;5078098;28;19931;-85
2021/11/25 07:59:45;;;;;;;;;;;23.70;38.40;;;;;;5096034;28;19908;-84
2021/11/25 08:02:16;;;;;;;;;;;23.70;38.40;;;;;;5077813;28;19991;-82
2021/11/25 08:04:42;;;;;;;;;;;23.70;39.00;;;;;;5094960;28;19908;-77
2021/11/25 08:07:13;;;;;;;;;;;23.70;38.50;;;;;;5095301;28;19908;-83
2021/11/25 08:09:41;;;;;;;;;;;23.70;38.90;;;;;;5094559;28;20274;-79
2021/11/25 08:12:07;;;;;;;;;;;23.80;39.00;;;;;;5094832;28;20315;-80
2021/11/25 08:14:37;;;;;;;;;;;23.80;39.00;;;;;;5095379;28;20334;-82
2021/11/25 08:17:03;;;;;;;;;;;23.90;39.30;;;;;;5078272;28;19935;-81
2021/11/25 08:19:28;;;;;;;;;;;23.90;39.60;;;;;;5094924;28;20337;-80
2021/11/25 08:21:54;;;;;;;;;;;23.90;39.80;;;;;;5077701;28;19908;-81
2021/11/25 08:24:22;;;;;;;;;;;23.90;39.60;;;;;;5077662;28;19995;-82
2021/11/25 08:26:50;;;;;;;;;;;24.00;39.60;;;;;;5078124;28;19908;-80
2021/11/25 08:29:15;;;;;;;;;;;24.10;39.80;;;;;;5094265;28;20082;-77
2021/11/25 08:31:41;;;;;;;;;;;24.10;39.70;;;;;;5094284;28;20388;-81
2021/11/25 08:34:06;;;;;;;;;;;24.10;39.60;;;;;;5077491;28;19908;-79
2021/11/25 08:36:32;;;;;;;;;;;24.10;39.60;;;;;;5078729;28;20018;-80
2021/11/25 08:38:57;;;;;;;;;;;24.20;39.50;;;;;;5098600;28;19999;-81
2021/11/25 08:41:26;;;;;;;;;;;24.20;39.50;;;;;;5081412;28;20030;-80
2021/11/25 08:43:52;;;;;;;;;;;24.20;39.60;;;;;;5098986;28;19931;-81
2021/11/25 08:46:18;;;;;;;;;;;24.20;39.50;;;;;;5097968;28;20347;-78
2021/11/25 08:48:46;;;;;;;;;;;24.20;39.50;;;;;;5097909;28;19908;-79
2021/11/25 08:51:14;;;;;;;;;;;24.30;39.60;;;;;;5098166;28;20299;-79
2021/11/25 08:53:40;;;;;;;;;;;24.30;39.50;;;;;;5081972;28;19931;-80
2021/11/25 08:56:06;;;;;;;;;;;24.30;39.50;;;;;;5099121;28;20357;-78
2021/11/25 08:58:31;;;;;;;;;;;24.30;39.40;;;;;;5098931;28;19909;-80
2021/11/25 09:00:57;;;;;;;;;;;24.40;39.40;;;;;;5099256;28;19998;-81
2021/11/25 09:03:23;;;;;;;;;;;24.40;39.20;;;;;;5099252;28;19995;-82
2021/11/25 09:05:48;;;;;;;;;;;24.40;38.90;;;;;;5098907;28;19923;-79
2021/11/25 09:08:16;;;;;;;;;;;24.40;38.80;;;;;;5098486;28;19908;-81
2021/11/25 09:10:42;;;;;;;;;;;24.40;38.70;;;;;;5097789;28;19912;-79
2021/11/25 09:13:08;;;;;;;;;;;24.40;38.40;;;;;;5098650;28;19919;-79
2021/11/25 09:15:34;;;;;;;;;;;24.40;38.30;;;;;;5097542;28;19944;-79
2021/11/25 09:18:00;;;;;;;;;;;24.40;38.30;;;;;;5097581;28;20390;-79
2021/11/25 09:20:30;;;;;;;;;;;24.40;38.30;;;;;;5097749;28;20183;-80
2021/11/25 09:22:56;;;;;;;;;;;24.40;38.20;;;;;;5097513;28;20008;-80
2021/11/25 09:25:21;;;;;;;;;;;24.40;38.20;;;;;;5097719;28;19908;-78
2021/11/25 09:27:48;;;;;;;;;;;24.40;38.10;;;;;;5097345;28;19908;-78
2021/11/25 09:30:15;;;;;;;;;;;24.40;38.10;;;;;;5098113;28;19959;-81
2021/11/25 09:32:41;;;;;;;;;;;24.50;38.10;;;;;;5097097;28;19908;-77
2021/11/25 09:35:07;;;;;;;;;;;24.50;38.10;;;;;;5080422;28;19922;-79
2021/11/25 09:37:35;;;;;;;;;;;24.50;38.00;;;;;;5080265;28;20308;-78
2021/11/25 09:40:01;;;;;;;;;;;24.50;38.00;;;;;;5097393;28;19938;-79
2021/11/25 09:42:26;;;;;;;;;;;24.50;38.00;;;;;;5097002;28;20291;-77
2021/11/25 09:44:54;;;;;;;;;;;24.50;37.90;;;;;;5098122;28;19908;-80
2021/11/25 09:47:20;;;;;;;;;;;24.50;37.90;;;;;;5079763;28;19908;-80
2021/11/25 09:49:48;;;;;;;;;;;24.50;37.90;;;;;;5097102;28;20290;-80
2021/11/25 09:52:13;;;;;;;;;;;24.50;37.80;;;;;;5097029;28;20228;-80
2021/11/25 09:54:39;;;;;;;;;;;24.50;37.80;;;;;;5097861;28;19919;-80
2021/11/25 09:57:04;;;;;;;;;;;24.50;37.80;;;;;;5097918;28;20061;-76
2021/11/25 09:59:30;;;;;;;;;;;24.50;37.80;;;;;;5096946;28;19908;-79
2021/11/25 10:02:00;;;;;;;;;;;24.50;37.80;;;;;;5096615;28;19949;-79
2021/11/25 10:04:27;;;;;;;;;;;24.50;37.70;;;;;;5080259;28;19931;-79
2021/11/25 10:06:55;;;;;;;;;;;24.50;37.70;;;;;;5096468;28;20375;-80
2021/11/25 10:09:36;;;;;;;;;;;24.50;37.70;;;;;;5096503;28;19927;-81
2021/11/25 10:12:20;;;;;;;;;;;24.50;37.70;;;;;;5097239;28;19922;-82
2021/11/25 10:14:48;;;;;;;;;;;24.50;37.60;;;;;;5097356;28;20109;-80
2021/11/25 10:17:16;;;;;;;;;;;24.50;37.60;;;;;;5096468;28;20341;-79
2021/11/25 10:19:44;;;;;;;;;;;24.50;37.60;;;;;;5096358;28;19914;-79
2021/11/25 10:22:10;;;;;;;;;;;24.60;37.60;;;;;;5096225;28;19916;-80
2021/11/25 10:24:39;;;;;;;;;;;24.60;37.50;;;;;;5096413;28;19908;-80
2021/11/25 10:27:31;;;;;;;;;;;24.50;37.50;;;;;;5096379;28;19908;-78
2021/11/25 10:30:18;;;;;;;;;;;24.50;37.50;;;;;;5092921;28;19923;-80
2021/11/25 10:32:56;;;;;;;;;;;24.50;38.10;;;;;;5096139;28;19908;-79
2021/11/25 10:35:33;;;;;;;;;;;24.50;37.50;;;;;;5079666;28;19941;-79
2021/11/25 10:40:35;;;;;;;;;;;24.50;37.50;;;;;;5096725;28;19983;-80
2021/11/25 10:43:20;;;;;;;;;;;24.50;37.50;;;;;;5081121;28;20337;-81
2021/11/25 10:45:47;;;;;;;;;;;24.50;37.50;;;;;;5102153;28;19912;-78
2021/11/25 10:48:12;;;;;;;;;;;24.50;37.50;;;;;;5085669;28;19908;-79
2021/11/25 10:50:40;;;;;;;;;;;24.50;37.40;;;;;;5097929;28;19927;-79
2021/11/25 10:53:07;;;;;;;;;;;24.50;37.40;;;;;;5097139;28;19912;-80
2021/11/25 10:55:35;;;;;;;;;;;24.60;37.40;;;;;;5096142;28;20004;-79
2021/11/25 10:58:02;;;;;;;;;;;24.60;37.40;;;;;;5079083;28;20356;-79
2021/11/25 11:00:29;;;;;;;;;;;24.60;37.40;;;;;;5095369;28;19908;-81
2021/11/25 11:03:05;;;;;;;;;;;24.60;37.60;;;;;;5078693;28;19908;-78
2021/11/25 11:05:30;;;;;;;;;;;24.60;37.90;;;;;;5096691;28;19912;-77
2021/11/25 11:08:06;;;;;;;;;;;24.60;38.50;;;;;;5095539;28;19912;-78
2021/11/25 11:10:32;;;;;;;;;;;24.60;38.60;;;;;;5078600;28;19916;-80
2021/11/25 11:16:10;;;;;;;;;;;24.70;39.00;;;;;;5095588;28;19931;-82
2021/11/25 11:21:30;;;;;;;;;;;24.70;39.10;;;;;;5096217;28;19916;-80
2021/11/25 11:23:59;;;;;;;;;;;24.70;39.20;;;;;;5095268;28;19909;-81
2021/11/25 11:26:24;;;;;;;;;;;24.70;39.20;;;;;;5095388;28;19908;-80
2021/11/25 11:28:53;;;;;;;;;;;24.70;39.20;;;;;;5094847;28;19908;-82
2021/11/25 11:31:18;;;;;;;;;;;24.70;39.20;;;;;;5095138;28;20009;-82
2021/11/25 11:33:44;;;;;;;;;;;24.80;39.30;;;;;;5078634;28;19962;-82
2021/11/25 11:36:09;;;;;;;;;;;24.80;39.30;;;;;;5095191;28;19958;-78
2021/11/25 11:38:35;;;;;;;;;;;24.80;39.40;;;;;;5094900;28;19923;-82
2021/11/25 11:41:03;;;;;;;;;;;24.80;39.50;;;;;;5094759;28;19961;-78
2021/11/25 11:43:31;;;;;;;;;;;24.80;39.50;;;;;;5094780;28;19908;-76
2021/11/25 11:45:59;;;;;;;;;;;24.80;39.40;;;;;;5095012;28;19913;-80
2021/11/25 11:48:25;;;;;;;;;;;24.90;39.40;;;;;;5078363;28;19908;-81
2021/11/25 11:50:53;;;;;;;;;;;24.80;39.20;;;;;;5094936;28;19922;-84
2021/11/25 11:53:22;;;;;;;;;;;24.90;39.30;;;;;;5095061;28;19908;-81
2021/11/25 11:55:47;;;;;;;;;;;24.90;39.50;;;;;;5079586;28;19938;-83
2021/11/25 11:58:19;;;;;;;;;;;24.90;39.50;;;;;;5094978;28;19912;-79
2021/11/25 12:00:45;;;;;;;;;;;24.90;39.50;;;;;;5095742;28;19989;-80
2021/11/25 12:03:10;;;;;;;;;;;24.90;39.50;;;;;;5095546;28;19916;-79
2021/11/25 12:05:39;;;;;;;;;;;24.90;39.40;;;;;;5094630;28;20093;-77
2021/11/25 12:08:20;;;;;;;;;;;25.00;39.40;;;;;;5094421;28;19908;-81
2021/11/25 12:10:57;;;;;;;;;;;24.90;39.40;;;;;;5094727;28;20360;-78
2021/11/25 12:13:26;;;;;;;;;;;25.00;39.30;;;;;;5095530;28;19908;-78
2021/11/25 12:15:56;;;;;;;;;;;24.90;39.30;;;;;;5094736;28;19908;-79
2021/11/25 12:18:31;;;;;;;;;;;24.90;39.30;;;;;;5077970;28;20367;-79
2021/11/25 12:20:57;;;;;;;;;;;24.90;39.30;;;;;;5095409;28;19951;-78
2021/11/25 12:23:32;;;;;;;;;;;25.00;39.20;;;;;;5094617;28;19939;-78
2021/11/25 12:25:58;;;;;;;;;;;25.00;38.80;;;;;;5094285;28;19962;-77
2021/11/25 12:28:27;;;;;;;;;;;25.00;38.60;;;;;;5095164;28;19908;-80
2021/11/25 12:30:55;;;;;;;;;;;25.00;38.30;;;;;;5094402;28;19919;-76
2021/11/25 12:33:36;;;;;;;;;;;25.00;38.20;;;;;;5094330;28;19919;-80
2021/11/25 12:36:02;;;;;;;;;;;25.00;38.60;;;;;;5095357;28;19947;-79
2021/11/25 12:38:32;;;;;;;;;;;25.00;38.80;;;;;;5077278;28;19987;-79
2021/11/25 12:41:01;;;;;;;;;;;24.90;38.80;;;;;;5094975;28;20332;-78
2021/11/25 12:43:28;;;;;;;;;;;25.00;39.00;;;;;;5094128;28;19912;-80
2021/11/25 12:46:03;;;;;;;;;;;25.00;39.00;;;;;;5094598;28;19908;-79
2021/11/25 12:48:35;;;;;;;;;;;25.00;39.20;;;;;;5094340;28;19919;-79
2021/11/25 12:51:18;;;;;;;;;;;25.00;39.30;;;;;;5094190;28;19912;-81
2021/11/25 12:53:48;;;;;;;;;;;25.00;39.40;;;;;;5095045;28;19920;-80
2021/11/25 12:56:17;;;;;;;;;;;25.00;39.40;;;;;;5077162;28;19951;-80
2021/11/25 12:59:01;;;;;;;;;;;25.00;39.50;;;;;;5093846;28;19950;-79
2021/11/25 13:01:28;;;;;;;;;;;25.00;39.50;;;;;;5095292;28;19912;-78
2021/11/25 13:03:58;;;;;;;;;;;25.10;39.50;;;;;;5095105;28;19908;-81
2021/11/25 13:06:23;;;;;;;;;;;25.10;39.50;;;;;;5094265;28;19909;-84
2021/11/25 13:08:51;;;;;;;;;;;25.00;35.70;;;;;;5077775;28;20286;-78
2021/11/25 13:11:20;;;;;;;;;;;24.30;29.60;;;;;;5077372;28;19963;-81
2021/11/25 13:13:52;;;;;;;;;;;23.70;29.20;;;;;;5094927;28;19908;-80
2021/11/25 13:16:20;;;;;;;;;;;23.00;29.80;;;;;;5094361;28;19985;-80
2021/11/25 13:18:51;;;;;;;;;;;22.40;30.70;;;;;;5077236;28;19938;-79
2021/11/25 13:21:19;;;;;;;;;;;21.80;31.40;;;;;;5094119;28;19997;-79
2021/11/25 13:23:48;;;;;;;;;;;21.40;32.00;;;;;;5098605;28;20388;-77
2021/11/25 13:26:14;;;;;;;;;;;21.00;33.10;;;;;;5097719;28;20345;-77
2021/11/25 13:28:42;;;;;;;;;;;21.00;38.90;;;;;;5097638;28;19908;-76
2021/11/25 13:31:10;;;;;;;;;;;21.10;42.60;;;;;;5098271;28;19912;-79
2021/11/25 13:33:54;;;;;;;;;;;21.30;45.10;;;;;;5097578;28;20297;-76
2021/11/25 13:36:20;;;;;;;;;;;21.60;46.50;;;;;;5098289;28;19908;-78
2021/11/25 13:38:49;;;;;;;;;;;21.90;47.00;;;;;;5097206;28;20363;-80
2021/11/25 13:41:15;;;;;;;;;;;22.20;47.30;;;;;;5080978;28;19950;-80
2021/11/25 13:43:47;;;;;;;;;;;22.50;47.10;;;;;;5097869;28;19983;-76
2021/11/25 13:46:13;;;;;;;;;;;22.70;47.50;;;;;;5097513;28;19931;-78
2021/11/25 13:48:41;;;;;;;;;;;22.90;46.70;;;;;;5079923;28;19908;-78
2021/11/25 13:51:09;;;;;;;;;;;23.20;46.50;;;;;;5097428;28;19974;-80
2021/11/25 13:53:34;;;;;;;;;;;23.30;46.20;;;;;;5080453;28;20000;-79
2021/11/25 13:56:00;;;;;;;;;;;23.40;46.00;;;;;;5080223;28;19943;-79
2021/11/25 13:58:25;;;;;;;;;;;23.60;45.80;;;;;;5098308;28;19969;-78
2021/11/25 14:00:54;;;;;;;;;;;23.70;45.50;;;;;;5097071;28;20360;-77
2021/11/25 14:03:23;;;;;;;;;;;23.80;45.80;;;;;;5081551;28;19961;-81
2021/11/25 14:05:52;;;;;;;;;;;23.90;45.10;;;;;;5097830;28;19923;-78
2021/11/25 14:08:18;;;;;;;;;;;24.00;44.90;;;;;;5080741;28;19977;-80
2021/11/25 14:10:44;;;;;;;;;;;24.10;44.80;;;;;;5096774;28;20308;-77
2021/11/25 14:13:09;;;;;;;;;;;24.10;44.50;;;;;;5097827;28;19993;-78
2021/11/25 14:15:39;;;;;;;;;;;24.20;44.30;;;;;;5097218;28;19908;-78
2021/11/25 14:18:11;;;;;;;;;;;24.20;44.10;;;;;;5081239;28;20054;-80
2021/11/25 14:20:37;;;;;;;;;;;24.30;44.20;;;;;;5097358;28;20481;-79
2021/11/25 14:23:19;;;;;;;;;;;24.30;44.00;;;;;;5097598;28;20252;-78
2021/11/25 14:25:47;;;;;;;;;;;24.40;43.90;;;;;;5080241;28;19955;-84
2021/11/25 14:31:07;;;;;;;;;;;24.40;43.70;;;;;;5097131;28;19923;-80
2021/11/25 14:33:48;;;;;;;;;;;24.40;43.60;;;;;;5078438;28;19920;-80
2021/11/25 14:36:21;;;;;;;;;;;24.50;43.50;;;;;;5097013;28;19915;-81